sensor_id;sensor_type;location;lat;lon;timestamp;P1;durP1;ratioP1;P2;durP2;ratioP2
10491;SDS011;5293;51.464;-2.566;2023-06-26T00:00:16;12.33;;;2.43;;
10491;SDS011;5293;51.464;-2.566;2023-06-26T00:02:42;6.43;;;2.13;;
10491;SDS011;5293;51.464;-2.566;2023-06-26T00:05:08;9.97;;;2.53;;
10491;SDS011;5293;51.464;-2.566;2023-06-26T00:07:33;7.90;;;1.93;;
10491;SDS011;5293;51.464;-2.566;2023-06-26T00:10:00;5.30;;;1.87;;
10491;SDS011;5293;51.464;-2.566;2023-06-26T00:12:27;6.73;;;2.07;;
10491;SDS011;5293;51.464;-2.566;2023-06-26T00:14:53;9.67;;;2.20;;
10491;SDS011;5293;51.464;-2.566;2023-06-26T00:17:20;5.37;;;1.80;;
10491;SDS011;5293;51.464;-2.566;2023-06-26T00:19:45;7.87;;;2.27;;
10491;SDS011;5293;51.464;-2.566;2023-06-26T00:22:11;6.00;;;2.13;;
10491;SDS011;5293;51.464;-2.566;2023-06-26T00:24:37;6.60;;;1.93;;
10491;SDS011;5293;51.464;-2.566;2023-06-26T00:27:03;5.67;;;2.00;;
10491;SDS011;5293;51.464;-2.566;2023-06-26T00:29:28;8.17;;;2.30;;
10491;SDS011;5293;51.464;-2.566;2023-06-26T00:31:54;7.47;;;1.77;;
10491;SDS011;5293;51.464;-2.566;2023-06-26T00:34:19;8.17;;;1.83;;
10491;SDS011;5293;51.464;-2.566;2023-06-26T00:36:45;7.37;;;2.10;;
10491;SDS011;5293;51.464;-2.566;2023-06-26T00:39:11;6.70;;;2.40;;
10491;SDS011;5293;51.464;-2.566;2023-06-26T00:41:37;7.10;;;2.00;;
10491;SDS011;5293;51.464;-2.566;2023-06-26T00:44:03;7.10;;;1.93;;
10491;SDS011;5293;51.464;-2.566;2023-06-26T00:46:29;4.73;;;1.80;;
10491;SDS011;5293;51.464;-2.566;2023-06-26T00:48:56;6.83;;;2.07;;
10491;SDS011;5293;51.464;-2.566;2023-06-26T00:51:24;5.50;;;1.80;;
10491;SDS011;5293;51.464;-2.566;2023-06-26T00:53:50;6.27;;;1.70;;
10491;SDS011;5293;51.464;-2.566;2023-06-26T00:56:17;7.30;;;2.00;;
10491;SDS011;5293;51.464;-2.566;2023-06-26T00:58:44;7.33;;;1.83;;
10491;SDS011;5293;51.464;-2.566;2023-06-26T01:01:10;7.97;;;1.87;;
10491;SDS011;5293;51.464;-2.566;2023-06-26T01:03:40;5.20;;;2.00;;
10491;SDS011;5293;51.464;-2.566;2023-06-26T01:06:07;6.57;;;2.30;;
10491;SDS011;5293;51.464;-2.566;2023-06-26T01:08:36;7.60;;;2.50;;
10491;SDS011;5293;51.464;-2.566;2023-06-26T01:11:03;7.53;;;2.17;;
10491;SDS011;5293;51.464;-2.566;2023-06-26T01:13:29;8.90;;;2.40;;
10491;SDS011;5293;51.464;-2.566;2023-06-26T01:15:55;7.00;;;2.47;;
10491;SDS011;5293;51.464;-2.566;2023-06-26T01:18:23;8.13;;;2.50;;
10491;SDS011;5293;51.464;-2.566;2023-06-26T01:20:50;10.80;;;1.90;;
10491;SDS011;5293;51.464;-2.566;2023-06-26T01:26:10;8.40;;;2.17;;
10491;SDS011;5293;51.464;-2.566;2023-06-26T01:28:40;9.27;;;2.30;;
10491;SDS011;5293;51.464;-2.566;2023-06-26T01:31:07;4.97;;;2.00;;
10491;SDS011;5293;51.464;-2.566;2023-06-26T01:33:33;15.63;;;3.07;;
10491;SDS011;5293;51.464;-2.566;2023-06-26T01:36:00;8.07;;;2.13;;
10491;SDS011;5293;51.464;-2.566;2023-06-26T01:38:26;7.33;;;2.00;;
10491;SDS011;5293;51.464;-2.566;2023-06-26T01:40:52;7.63;;;2.57;;
10491;SDS011;5293;51.464;-2.566;2023-06-26T01:45:43;8.77;;;2.50;;
10491;SDS011;5293;51.464;-2.566;2023-06-26T01:48:10;9.93;;;2.90;;
10491;SDS011;5293;51.464;-2.566;2023-06-26T01:50:37;7.77;;;2.30;;
10491;SDS011;5293;51.464;-2.566;2023-06-26T01:53:08;6.63;;;2.33;;
10491;SDS011;5293;51.464;-2.566;2023-06-26T01:55:48;9.43;;;2.17;;
10491;SDS011;5293;51.464;-2.566;2023-06-26T01:58:22;11.60;;;3.27;;
10491;SDS011;5293;51.464;-2.566;2023-06-26T02:00:50;10.80;;;2.30;;
10491;SDS011;5293;51.464;-2.566;2023-06-26T02:03:16;7.77;;;2.40;;
10491;SDS011;5293;51.464;-2.566;2023-06-26T02:05:41;10.80;;;2.80;;
10491;SDS011;5293;51.464;-2.566;2023-06-26T02:08:08;12.73;;;2.70;;
10491;SDS011;5293;51.464;-2.566;2023-06-26T02:10:34;8.20;;;2.50;;
10491;SDS011;5293;51.464;-2.566;2023-06-26T02:13:00;14.33;;;2.70;;
10491;SDS011;5293;51.464;-2.566;2023-06-26T02:15:25;13.60;;;2.93;;
10491;SDS011;5293;51.464;-2.566;2023-06-26T02:17:51;6.27;;;2.20;;
10491;SDS011;5293;51.464;-2.566;2023-06-26T02:20:17;8.37;;;2.60;;
10491;SDS011;5293;51.464;-2.566;2023-06-26T02:22:42;8.73;;;2.10;;
10491;SDS011;5293;51.464;-2.566;2023-06-26T02:25:09;14.27;;;3.00;;
10491;SDS011;5293;51.464;-2.566;2023-06-26T02:27:35;9.53;;;2.50;;
10491;SDS011;5293;51.464;-2.566;2023-06-26T02:30:01;10.17;;;2.17;;
10491;SDS011;5293;51.464;-2.566;2023-06-26T02:32:27;12.20;;;3.23;;
10491;SDS011;5293;51.464;-2.566;2023-06-26T02:34:52;15.47;;;2.50;;
10491;SDS011;5293;51.464;-2.566;2023-06-26T02:37:18;17.23;;;2.57;;
10491;SDS011;5293;51.464;-2.566;2023-06-26T02:39:44;11.30;;;3.30;;
10491;SDS011;5293;51.464;-2.566;2023-06-26T02:42:10;9.63;;;2.77;;
10491;SDS011;5293;51.464;-2.566;2023-06-26T02:44:36;8.07;;;2.43;;
10491;SDS011;5293;51.464;-2.566;2023-06-26T02:47:02;6.23;;;2.50;;
10491;SDS011;5293;51.464;-2.566;2023-06-26T02:49:28;6.40;;;1.93;;
10491;SDS011;5293;51.464;-2.566;2023-06-26T02:51:54;13.80;;;3.37;;
10491;SDS011;5293;51.464;-2.566;2023-06-26T02:54:19;10.90;;;2.43;;
10491;SDS011;5293;51.464;-2.566;2023-06-26T02:56:45;8.13;;;2.30;;
10491;SDS011;5293;51.464;-2.566;2023-06-26T02:59:11;9.10;;;2.50;;
10491;SDS011;5293;51.464;-2.566;2023-06-26T03:01:36;8.83;;;2.07;;
10491;SDS011;5293;51.464;-2.566;2023-06-26T03:04:03;7.60;;;2.50;;
10491;SDS011;5293;51.464;-2.566;2023-06-26T03:06:29;10.70;;;2.63;;
10491;SDS011;5293;51.464;-2.566;2023-06-26T03:08:55;11.07;;;2.67;;
10491;SDS011;5293;51.464;-2.566;2023-06-26T03:11:21;10.67;;;2.53;;
10491;SDS011;5293;51.464;-2.566;2023-06-26T03:13:46;7.47;;;2.17;;
10491;SDS011;5293;51.464;-2.566;2023-06-26T03:16:12;11.07;;;2.83;;
10491;SDS011;5293;51.464;-2.566;2023-06-26T03:18:38;11.53;;;2.60;;
10491;SDS011;5293;51.464;-2.566;2023-06-26T03:21:03;9.50;;;2.70;;
10491;SDS011;5293;51.464;-2.566;2023-06-26T03:23:29;11.83;;;2.67;;
10491;SDS011;5293;51.464;-2.566;2023-06-26T03:25:55;7.83;;;2.20;;
10491;SDS011;5293;51.464;-2.566;2023-06-26T03:28:20;7.40;;;2.13;;
10491;SDS011;5293;51.464;-2.566;2023-06-26T03:30:46;9.57;;;2.70;;
10491;SDS011;5293;51.464;-2.566;2023-06-26T03:33:11;9.83;;;2.27;;
10491;SDS011;5293;51.464;-2.566;2023-06-26T03:35:37;9.20;;;2.10;;
10491;SDS011;5293;51.464;-2.566;2023-06-26T03:38:03;9.63;;;2.20;;
10491;SDS011;5293;51.464;-2.566;2023-06-26T03:40:30;9.77;;;2.00;;
10491;SDS011;5293;51.464;-2.566;2023-06-26T03:42:55;7.73;;;2.00;;
10491;SDS011;5293;51.464;-2.566;2023-06-26T03:45:21;7.50;;;1.80;;
10491;SDS011;5293;51.464;-2.566;2023-06-26T03:47:47;5.93;;;1.73;;
10491;SDS011;5293;51.464;-2.566;2023-06-26T03:50:14;3.97;;;1.90;;
10491;SDS011;5293;51.464;-2.566;2023-06-26T03:52:41;8.40;;;2.07;;
10491;SDS011;5293;51.464;-2.566;2023-06-26T03:55:06;7.87;;;2.23;;
10491;SDS011;5293;51.464;-2.566;2023-06-26T03:57:32;5.03;;;1.83;;
10491;SDS011;5293;51.464;-2.566;2023-06-26T03:59:58;6.83;;;1.73;;
10491;SDS011;5293;51.464;-2.566;2023-06-26T04:02:24;7.00;;;2.00;;
10491;SDS011;5293;51.464;-2.566;2023-06-26T04:04:49;5.33;;;2.33;;
10491;SDS011;5293;51.464;-2.566;2023-06-26T04:07:15;6.13;;;2.03;;
10491;SDS011;5293;51.464;-2.566;2023-06-26T04:09:41;8.70;;;2.50;;
10491;SDS011;5293;51.464;-2.566;2023-06-26T04:12:06;5.50;;;2.53;;
10491;SDS011;5293;51.464;-2.566;2023-06-26T04:14:32;14.70;;;2.63;;
10491;SDS011;5293;51.464;-2.566;2023-06-26T04:16:58;5.03;;;2.23;;
10491;SDS011;5293;51.464;-2.566;2023-06-26T04:19:26;5.50;;;1.80;;
10491;SDS011;5293;51.464;-2.566;2023-06-26T04:21:52;9.00;;;2.03;;
10491;SDS011;5293;51.464;-2.566;2023-06-26T04:24:18;5.33;;;2.07;;
10491;SDS011;5293;51.464;-2.566;2023-06-26T04:26:43;5.07;;;2.10;;
10491;SDS011;5293;51.464;-2.566;2023-06-26T04:29:10;6.93;;;2.40;;
10491;SDS011;5293;51.464;-2.566;2023-06-26T04:31:36;9.30;;;2.10;;
10491;SDS011;5293;51.464;-2.566;2023-06-26T04:34:01;9.23;;;2.40;;
10491;SDS011;5293;51.464;-2.566;2023-06-26T04:36:27;6.93;;;2.30;;
10491;SDS011;5293;51.464;-2.566;2023-06-26T04:38:56;4.70;;;1.90;;
10491;SDS011;5293;51.464;-2.566;2023-06-26T04:41:23;8.57;;;2.40;;
10491;SDS011;5293;51.464;-2.566;2023-06-26T04:43:49;6.97;;;2.07;;
10491;SDS011;5293;51.464;-2.566;2023-06-26T04:46:15;6.83;;;1.87;;
10491;SDS011;5293;51.464;-2.566;2023-06-26T04:48:41;4.63;;;1.60;;
10491;SDS011;5293;51.464;-2.566;2023-06-26T04:51:06;5.10;;;1.73;;
10491;SDS011;5293;51.464;-2.566;2023-06-26T04:53:32;6.53;;;2.47;;
10491;SDS011;5293;51.464;-2.566;2023-06-26T04:55:58;8.77;;;2.63;;
10491;SDS011;5293;51.464;-2.566;2023-06-26T04:58:23;5.73;;;1.93;;
10491;SDS011;5293;51.464;-2.566;2023-06-26T05:00:49;6.33;;;1.83;;
10491;SDS011;5293;51.464;-2.566;2023-06-26T05:03:16;6.60;;;1.77;;
10491;SDS011;5293;51.464;-2.566;2023-06-26T05:05:42;7.20;;;2.00;;
10491;SDS011;5293;51.464;-2.566;2023-06-26T05:08:15;9.27;;;2.13;;
10491;SDS011;5293;51.464;-2.566;2023-06-26T05:10:42;7.73;;;2.03;;
10491;SDS011;5293;51.464;-2.566;2023-06-26T05:13:07;6.37;;;1.97;;
10491;SDS011;5293;51.464;-2.566;2023-06-26T05:15:33;8.27;;;1.97;;
10491;SDS011;5293;51.464;-2.566;2023-06-26T05:17:59;5.10;;;1.90;;
10491;SDS011;5293;51.464;-2.566;2023-06-26T05:20:24;4.23;;;1.93;;
10491;SDS011;5293;51.464;-2.566;2023-06-26T05:22:50;7.20;;;1.80;;
10491;SDS011;5293;51.464;-2.566;2023-06-26T05:25:17;4.93;;;1.70;;
10491;SDS011;5293;51.464;-2.566;2023-06-26T05:27:46;10.10;;;2.20;;
10491;SDS011;5293;51.464;-2.566;2023-06-26T05:30:12;4.30;;;1.53;;
10491;SDS011;5293;51.464;-2.566;2023-06-26T05:32:38;8.40;;;2.13;;
10491;SDS011;5293;51.464;-2.566;2023-06-26T05:35:05;4.60;;;1.60;;
10491;SDS011;5293;51.464;-2.566;2023-06-26T05:37:32;6.67;;;1.67;;
10491;SDS011;5293;51.464;-2.566;2023-06-26T05:39:59;7.70;;;2.23;;
10491;SDS011;5293;51.464;-2.566;2023-06-26T05:42:26;8.13;;;1.93;;
10491;SDS011;5293;51.464;-2.566;2023-06-26T05:44:53;7.57;;;2.00;;
10491;SDS011;5293;51.464;-2.566;2023-06-26T05:47:18;9.57;;;2.83;;
10491;SDS011;5293;51.464;-2.566;2023-06-26T05:49:44;6.17;;;1.57;;
10491;SDS011;5293;51.464;-2.566;2023-06-26T05:52:10;6.37;;;1.70;;
10491;SDS011;5293;51.464;-2.566;2023-06-26T05:54:36;6.57;;;1.90;;
10491;SDS011;5293;51.464;-2.566;2023-06-26T05:57:02;5.17;;;1.87;;
10491;SDS011;5293;51.464;-2.566;2023-06-26T05:59:30;5.17;;;1.70;;
10491;SDS011;5293;51.464;-2.566;2023-06-26T06:01:57;5.47;;;1.60;;
10491;SDS011;5293;51.464;-2.566;2023-06-26T06:04:23;3.63;;;1.47;;
10491;SDS011;5293;51.464;-2.566;2023-06-26T06:06:49;7.03;;;1.50;;
10491;SDS011;5293;51.464;-2.566;2023-06-26T06:09:15;4.57;;;1.47;;
10491;SDS011;5293;51.464;-2.566;2023-06-26T06:11:40;7.00;;;1.77;;
10491;SDS011;5293;51.464;-2.566;2023-06-26T06:14:06;4.23;;;1.50;;
10491;SDS011;5293;51.464;-2.566;2023-06-26T06:16:31;2.63;;;1.37;;
10491;SDS011;5293;51.464;-2.566;2023-06-26T06:18:57;6.63;;;1.80;;
10491;SDS011;5293;51.464;-2.566;2023-06-26T06:21:23;4.07;;;1.50;;
10491;SDS011;5293;51.464;-2.566;2023-06-26T06:23:48;4.47;;;1.50;;
10491;SDS011;5293;51.464;-2.566;2023-06-26T06:26:14;8.43;;;1.80;;
10491;SDS011;5293;51.464;-2.566;2023-06-26T06:28:40;4.43;;;1.30;;
10491;SDS011;5293;51.464;-2.566;2023-06-26T06:31:05;4.50;;;1.60;;
10491;SDS011;5293;51.464;-2.566;2023-06-26T06:33:31;5.43;;;1.50;;
10491;SDS011;5293;51.464;-2.566;2023-06-26T06:35:57;7.07;;;1.63;;
10491;SDS011;5293;51.464;-2.566;2023-06-26T06:38:23;7.13;;;1.90;;
10491;SDS011;5293;51.464;-2.566;2023-06-26T06:40:49;4.40;;;1.67;;
10491;SDS011;5293;51.464;-2.566;2023-06-26T06:43:14;4.90;;;1.40;;
10491;SDS011;5293;51.464;-2.566;2023-06-26T06:45:40;5.60;;;1.63;;
10491;SDS011;5293;51.464;-2.566;2023-06-26T06:48:06;4.87;;;1.63;;
10491;SDS011;5293;51.464;-2.566;2023-06-26T06:50:32;2.93;;;1.30;;
10491;SDS011;5293;51.464;-2.566;2023-06-26T06:52:58;6.47;;;1.70;;
10491;SDS011;5293;51.464;-2.566;2023-06-26T06:55:23;13.53;;;2.67;;
10491;SDS011;5293;51.464;-2.566;2023-06-26T06:57:51;7.57;;;2.33;;
10491;SDS011;5293;51.464;-2.566;2023-06-26T07:00:16;6.40;;;1.50;;
10491;SDS011;5293;51.464;-2.566;2023-06-26T07:02:43;6.37;;;1.93;;
10491;SDS011;5293;51.464;-2.566;2023-06-26T07:05:10;4.83;;;1.33;;
10491;SDS011;5293;51.464;-2.566;2023-06-26T07:07:36;4.07;;;1.30;;
10491;SDS011;5293;51.464;-2.566;2023-06-26T07:10:03;4.20;;;1.40;;
10491;SDS011;5293;51.464;-2.566;2023-06-26T07:12:30;4.40;;;1.30;;
10491;SDS011;5293;51.464;-2.566;2023-06-26T07:14:56;5.63;;;1.77;;
10491;SDS011;5293;51.464;-2.566;2023-06-26T07:17:22;7.67;;;2.03;;
10491;SDS011;5293;51.464;-2.566;2023-06-26T07:19:49;5.13;;;1.80;;
10491;SDS011;5293;51.464;-2.566;2023-06-26T07:22:14;7.10;;;1.53;;
10491;SDS011;5293;51.464;-2.566;2023-06-26T07:24:40;4.00;;;1.40;;
10491;SDS011;5293;51.464;-2.566;2023-06-26T07:27:06;9.27;;;2.00;;
10491;SDS011;5293;51.464;-2.566;2023-06-26T07:29:31;9.67;;;1.57;;
10491;SDS011;5293;51.464;-2.566;2023-06-26T07:31:58;5.50;;;1.63;;
10491;SDS011;5293;51.464;-2.566;2023-06-26T07:34:24;7.03;;;1.73;;
10491;SDS011;5293;51.464;-2.566;2023-06-26T07:36:49;6.07;;;2.00;;
10491;SDS011;5293;51.464;-2.566;2023-06-26T07:39:15;8.93;;;2.17;;
10491;SDS011;5293;51.464;-2.566;2023-06-26T07:41:41;4.53;;;1.90;;
10491;SDS011;5293;51.464;-2.566;2023-06-26T07:44:06;8.73;;;2.07;;
10491;SDS011;5293;51.464;-2.566;2023-06-26T07:46:32;5.80;;;1.87;;
10491;SDS011;5293;51.464;-2.566;2023-06-26T07:48:58;6.40;;;1.70;;
10491;SDS011;5293;51.464;-2.566;2023-06-26T07:51:23;8.17;;;1.90;;
10491;SDS011;5293;51.464;-2.566;2023-06-26T07:53:49;5.67;;;1.63;;
10491;SDS011;5293;51.464;-2.566;2023-06-26T07:56:14;6.83;;;1.60;;
10491;SDS011;5293;51.464;-2.566;2023-06-26T07:58:40;7.83;;;1.70;;
10491;SDS011;5293;51.464;-2.566;2023-06-26T08:01:06;6.57;;;1.67;;
10491;SDS011;5293;51.464;-2.566;2023-06-26T08:03:31;5.00;;;1.30;;
10491;SDS011;5293;51.464;-2.566;2023-06-26T08:05:57;5.97;;;1.70;;
10491;SDS011;5293;51.464;-2.566;2023-06-26T08:08:23;8.33;;;2.10;;
10491;SDS011;5293;51.464;-2.566;2023-06-26T08:10:48;8.97;;;1.30;;
10491;SDS011;5293;51.464;-2.566;2023-06-26T08:13:14;4.70;;;1.47;;
10491;SDS011;5293;51.464;-2.566;2023-06-26T08:15:40;6.53;;;1.70;;
10491;SDS011;5293;51.464;-2.566;2023-06-26T08:18:05;7.50;;;2.00;;
10491;SDS011;5293;51.464;-2.566;2023-06-26T08:20:31;10.43;;;1.90;;
10491;SDS011;5293;51.464;-2.566;2023-06-26T08:22:57;6.03;;;1.50;;
10491;SDS011;5293;51.464;-2.566;2023-06-26T08:25:22;5.73;;;1.70;;
10491;SDS011;5293;51.464;-2.566;2023-06-26T08:27:48;6.90;;;2.40;;
10491;SDS011;5293;51.464;-2.566;2023-06-26T08:30:14;10.13;;;2.40;;
10491;SDS011;5293;51.464;-2.566;2023-06-26T08:32:39;6.23;;;1.77;;
10491;SDS011;5293;51.464;-2.566;2023-06-26T08:35:06;4.23;;;1.90;;
10491;SDS011;5293;51.464;-2.566;2023-06-26T08:37:32;6.60;;;2.28;;
10491;SDS011;5293;51.464;-2.566;2023-06-26T08:40:01;6.90;;;1.87;;
10491;SDS011;5293;51.464;-2.566;2023-06-26T08:42:27;5.80;;;1.77;;
10491;SDS011;5293;51.464;-2.566;2023-06-26T08:44:54;5.73;;;1.90;;
10491;SDS011;5293;51.464;-2.566;2023-06-26T08:47:20;7.80;;;2.07;;
10491;SDS011;5293;51.464;-2.566;2023-06-26T08:52:35;4.83;;;1.70;;
10491;SDS011;5293;51.464;-2.566;2023-06-26T08:55:06;5.00;;;2.07;;
10491;SDS011;5293;51.464;-2.566;2023-06-26T08:57:36;8.77;;;1.97;;
10491;SDS011;5293;51.464;-2.566;2023-06-26T09:00:03;7.50;;;2.27;;
10491;SDS011;5293;51.464;-2.566;2023-06-26T09:02:34;6.57;;;2.10;;
10491;SDS011;5293;51.464;-2.566;2023-06-26T09:05:01;8.73;;;2.17;;
10491;SDS011;5293;51.464;-2.566;2023-06-26T09:07:28;3.27;;;2.07;;
10491;SDS011;5293;51.464;-2.566;2023-06-26T09:09:54;7.30;;;1.93;;
10491;SDS011;5293;51.464;-2.566;2023-06-26T09:12:20;6.60;;;1.90;;
10491;SDS011;5293;51.464;-2.566;2023-06-26T09:14:46;8.73;;;1.93;;
10491;SDS011;5293;51.464;-2.566;2023-06-26T09:17:13;9.37;;;4.50;;
10491;SDS011;5293;51.464;-2.566;2023-06-26T09:19:39;5.07;;;1.70;;
10491;SDS011;5293;51.464;-2.566;2023-06-26T09:22:05;5.07;;;1.73;;
10491;SDS011;5293;51.464;-2.566;2023-06-26T09:24:37;5.50;;;1.60;;
10491;SDS011;5293;51.464;-2.566;2023-06-26T09:27:03;8.03;;;1.77;;
10491;SDS011;5293;51.464;-2.566;2023-06-26T09:29:29;4.57;;;1.97;;
10491;SDS011;5293;51.464;-2.566;2023-06-26T09:31:56;6.10;;;1.80;;
10491;SDS011;5293;51.464;-2.566;2023-06-26T09:34:22;2.47;;;1.47;;
10491;SDS011;5293;51.464;-2.566;2023-06-26T09:36:47;5.53;;;1.30;;
10491;SDS011;5293;51.464;-2.566;2023-06-26T09:39:17;6.53;;;1.40;;
10491;SDS011;5293;51.464;-2.566;2023-06-26T09:41:43;6.07;;;1.53;;
10491;SDS011;5293;51.464;-2.566;2023-06-26T09:44:13;4.80;;;1.20;;
10491;SDS011;5293;51.464;-2.566;2023-06-26T09:46:39;4.77;;;1.17;;
10491;SDS011;5293;51.464;-2.566;2023-06-26T09:49:09;3.13;;;1.10;;
10491;SDS011;5293;51.464;-2.566;2023-06-26T09:51:36;3.13;;;1.30;;
10491;SDS011;5293;51.464;-2.566;2023-06-26T09:54:03;4.30;;;1.30;;
10491;SDS011;5293;51.464;-2.566;2023-06-26T09:56:30;3.73;;;1.40;;
10491;SDS011;5293;51.464;-2.566;2023-06-26T09:58:57;7.60;;;1.40;;
10491;SDS011;5293;51.464;-2.566;2023-06-26T10:01:24;4.83;;;1.30;;
10491;SDS011;5293;51.464;-2.566;2023-06-26T10:03:50;4.27;;;1.40;;
10491;SDS011;5293;51.464;-2.566;2023-06-26T10:06:20;3.77;;;1.10;;
10491;SDS011;5293;51.464;-2.566;2023-06-26T10:08:54;2.77;;;1.40;;
10491;SDS011;5293;51.464;-2.566;2023-06-26T10:11:21;3.70;;;1.53;;
10491;SDS011;5293;51.464;-2.566;2023-06-26T10:13:50;6.13;;;1.53;;
10491;SDS011;5293;51.464;-2.566;2023-06-26T10:16:29;5.30;;;1.10;;
10491;SDS011;5293;51.464;-2.566;2023-06-26T10:19:02;8.97;;;1.20;;
10491;SDS011;5293;51.464;-2.566;2023-06-26T10:21:31;3.97;;;1.20;;
10491;SDS011;5293;51.464;-2.566;2023-06-26T10:23:59;5.70;;;1.17;;
10491;SDS011;5293;51.464;-2.566;2023-06-26T10:26:28;4.53;;;1.00;;
10491;SDS011;5293;51.464;-2.566;2023-06-26T10:28:55;5.97;;;1.30;;
10491;SDS011;5293;51.464;-2.566;2023-06-26T10:31:23;3.97;;;0.80;;
10491;SDS011;5293;51.464;-2.566;2023-06-26T10:33:51;2.63;;;1.40;;
10491;SDS011;5293;51.464;-2.566;2023-06-26T10:36:28;8.10;;;1.70;;
10491;SDS011;5293;51.464;-2.566;2023-06-26T10:38:55;3.77;;;1.27;;
10491;SDS011;5293;51.464;-2.566;2023-06-26T10:41:23;4.77;;;1.87;;
10491;SDS011;5293;51.464;-2.566;2023-06-26T10:44:22;2.10;;;0.80;;
10491;SDS011;5293;51.464;-2.566;2023-06-26T10:46:48;4.67;;;1.07;;
10491;SDS011;5293;51.464;-2.566;2023-06-26T10:49:18;3.67;;;1.07;;
10491;SDS011;5293;51.464;-2.566;2023-06-26T10:51:46;4.87;;;1.30;;
10491;SDS011;5293;51.464;-2.566;2023-06-26T10:54:18;2.17;;;1.00;;
10491;SDS011;5293;51.464;-2.566;2023-06-26T10:56:48;5.90;;;1.57;;
10491;SDS011;5293;51.464;-2.566;2023-06-26T10:59:19;4.90;;;1.13;;
10491;SDS011;5293;51.464;-2.566;2023-06-26T11:01:46;4.07;;;1.30;;
10491;SDS011;5293;51.464;-2.566;2023-06-26T11:04:46;5.63;;;1.20;;
10491;SDS011;5293;51.464;-2.566;2023-06-26T11:15:15;6.33;;;1.30;;
10491;SDS011;5293;51.464;-2.566;2023-06-26T11:17:42;2.20;;;0.87;;
10491;SDS011;5293;51.464;-2.566;2023-06-26T11:20:09;4.07;;;1.60;;
10491;SDS011;5293;51.464;-2.566;2023-06-26T11:22:40;5.00;;;0.97;;
10491;SDS011;5293;51.464;-2.566;2023-06-26T11:25:07;6.27;;;1.33;;
10491;SDS011;5293;51.464;-2.566;2023-06-26T11:27:38;3.03;;;1.20;;
10491;SDS011;5293;51.464;-2.566;2023-06-26T11:30:05;1.87;;;1.07;;
10491;SDS011;5293;51.464;-2.566;2023-06-26T11:32:31;3.87;;;0.80;;
10491;SDS011;5293;51.464;-2.566;2023-06-26T11:35:00;5.27;;;1.30;;
10491;SDS011;5293;51.464;-2.566;2023-06-26T11:37:26;4.93;;;1.33;;
10491;SDS011;5293;51.464;-2.566;2023-06-26T11:39:52;4.47;;;1.10;;
10491;SDS011;5293;51.464;-2.566;2023-06-26T11:42:18;4.30;;;1.23;;
10491;SDS011;5293;51.464;-2.566;2023-06-26T11:44:44;2.77;;;1.20;;
10491;SDS011;5293;51.464;-2.566;2023-06-26T11:47:14;2.87;;;0.97;;
10491;SDS011;5293;51.464;-2.566;2023-06-26T11:49:43;6.63;;;1.33;;
10491;SDS011;5293;51.464;-2.566;2023-06-26T11:52:10;2.53;;;1.10;;
10491;SDS011;5293;51.464;-2.566;2023-06-26T11:54:36;3.53;;;1.40;;
10491;SDS011;5293;51.464;-2.566;2023-06-26T11:57:02;4.40;;;1.43;;
10491;SDS011;5293;51.464;-2.566;2023-06-26T11:59:35;2.50;;;1.20;;
10491;SDS011;5293;51.464;-2.566;2023-06-26T12:02:11;6.90;;;2.80;;
10491;SDS011;5293;51.464;-2.566;2023-06-26T12:04:39;6.33;;;1.70;;
10491;SDS011;5293;51.464;-2.566;2023-06-26T12:07:07;3.20;;;1.10;;
10491;SDS011;5293;51.464;-2.566;2023-06-26T12:09:44;4.70;;;1.93;;
10491;SDS011;5293;51.464;-2.566;2023-06-26T12:12:13;7.33;;;1.60;;
10491;SDS011;5293;51.464;-2.566;2023-06-26T12:14:41;5.60;;;1.43;;
10491;SDS011;5293;51.464;-2.566;2023-06-26T12:17:08;4.83;;;1.67;;
10491;SDS011;5293;51.464;-2.566;2023-06-26T12:19:39;7.63;;;1.60;;
10491;SDS011;5293;51.464;-2.566;2023-06-26T12:22:09;4.93;;;1.43;;
10491;SDS011;5293;51.464;-2.566;2023-06-26T12:24:36;7.90;;;1.50;;
10491;SDS011;5293;51.464;-2.566;2023-06-26T12:27:06;5.13;;;1.42;;
10491;SDS011;5293;51.464;-2.566;2023-06-26T12:29:38;4.97;;;1.60;;
10491;SDS011;5293;51.464;-2.566;2023-06-26T12:32:07;4.17;;;1.33;;
10491;SDS011;5293;51.464;-2.566;2023-06-26T12:34:36;2.92;;;1.20;;
10491;SDS011;5293;51.464;-2.566;2023-06-26T12:37:05;3.92;;;1.40;;
10491;SDS011;5293;51.464;-2.566;2023-06-26T12:39:51;5.18;;;1.67;;
10491;SDS011;5293;51.464;-2.566;2023-06-26T12:42:22;3.10;;;1.20;;
10491;SDS011;5293;51.464;-2.566;2023-06-26T12:44:49;7.90;;;1.50;;
10491;SDS011;5293;51.464;-2.566;2023-06-26T12:47:16;4.78;;;1.48;;
10491;SDS011;5293;51.464;-2.566;2023-06-26T12:49:43;2.37;;;1.17;;
10491;SDS011;5293;51.464;-2.566;2023-06-26T12:52:11;6.00;;;1.23;;
10491;SDS011;5293;51.464;-2.566;2023-06-26T12:54:38;3.80;;;1.40;;
10491;SDS011;5293;51.464;-2.566;2023-06-26T12:57:05;5.67;;;1.73;;
10491;SDS011;5293;51.464;-2.566;2023-06-26T12:59:32;2.90;;;1.10;;
10491;SDS011;5293;51.464;-2.566;2023-06-26T13:01:59;5.33;;;1.60;;
10491;SDS011;5293;51.464;-2.566;2023-06-26T13:04:25;5.77;;;1.30;;
10491;SDS011;5293;51.464;-2.566;2023-06-26T13:06:51;5.87;;;1.23;;
10491;SDS011;5293;51.464;-2.566;2023-06-26T13:09:20;3.20;;;1.20;;
10491;SDS011;5293;51.464;-2.566;2023-06-26T13:11:46;3.83;;;1.10;;
10491;SDS011;5293;51.464;-2.566;2023-06-26T13:14:12;3.93;;;1.90;;
10491;SDS011;5293;51.464;-2.566;2023-06-26T13:16:38;4.30;;;1.43;;
10491;SDS011;5293;51.464;-2.566;2023-06-26T13:19:05;5.70;;;1.50;;
10491;SDS011;5293;51.464;-2.566;2023-06-26T13:21:31;6.83;;;1.67;;
10491;SDS011;5293;51.464;-2.566;2023-06-26T13:23:58;4.47;;;1.20;;
10491;SDS011;5293;51.464;-2.566;2023-06-26T13:26:24;2.87;;;0.93;;
10491;SDS011;5293;51.464;-2.566;2023-06-26T13:28:51;3.93;;;1.40;;
10491;SDS011;5293;51.464;-2.566;2023-06-26T13:31:17;4.47;;;1.43;;
10491;SDS011;5293;51.464;-2.566;2023-06-26T13:33:44;3.57;;;0.90;;
10491;SDS011;5293;51.464;-2.566;2023-06-26T13:36:11;3.30;;;1.30;;
10491;SDS011;5293;51.464;-2.566;2023-06-26T13:38:36;4.97;;;1.07;;
10491;SDS011;5293;51.464;-2.566;2023-06-26T13:41:02;3.97;;;1.00;;
10491;SDS011;5293;51.464;-2.566;2023-06-26T13:43:28;4.07;;;1.43;;
10491;SDS011;5293;51.464;-2.566;2023-06-26T13:45:55;5.10;;;1.40;;
10491;SDS011;5293;51.464;-2.566;2023-06-26T13:48:21;4.27;;;1.33;;
10491;SDS011;5293;51.464;-2.566;2023-06-26T13:50:49;3.53;;;1.20;;
10491;SDS011;5293;51.464;-2.566;2023-06-26T13:53:15;7.60;;;1.57;;
10491;SDS011;5293;51.464;-2.566;2023-06-26T13:55:41;3.27;;;1.30;;
10491;SDS011;5293;51.464;-2.566;2023-06-26T13:58:07;2.87;;;1.10;;
10491;SDS011;5293;51.464;-2.566;2023-06-26T14:00:33;6.37;;;1.87;;
10491;SDS011;5293;51.464;-2.566;2023-06-26T14:03:00;7.23;;;1.60;;
10491;SDS011;5293;51.464;-2.566;2023-06-26T14:05:28;4.70;;;1.33;;
10491;SDS011;5293;51.464;-2.566;2023-06-26T14:07:54;8.03;;;1.30;;
10491;SDS011;5293;51.464;-2.566;2023-06-26T14:10:22;3.47;;;1.10;;
10491;SDS011;5293;51.464;-2.566;2023-06-26T14:12:48;3.27;;;1.30;;
10491;SDS011;5293;51.464;-2.566;2023-06-26T14:15:14;4.53;;;1.60;;
10491;SDS011;5293;51.464;-2.566;2023-06-26T14:17:40;4.67;;;1.30;;
10491;SDS011;5293;51.464;-2.566;2023-06-26T14:20:06;2.07;;;0.97;;
10491;SDS011;5293;51.464;-2.566;2023-06-26T14:22:38;4.03;;;0.90;;
10491;SDS011;5293;51.464;-2.566;2023-06-26T14:25:05;2.23;;;1.00;;
10491;SDS011;5293;51.464;-2.566;2023-06-26T14:27:31;1.60;;;1.10;;
10491;SDS011;5293;51.464;-2.566;2023-06-26T14:29:57;2.50;;;0.90;;
10491;SDS011;5293;51.464;-2.566;2023-06-26T14:32:22;2.23;;;0.90;;
10491;SDS011;5293;51.464;-2.566;2023-06-26T14:34:48;1.90;;;1.07;;
10491;SDS011;5293;51.464;-2.566;2023-06-26T14:37:14;4.03;;;0.90;;
10491;SDS011;5293;51.464;-2.566;2023-06-26T14:39:39;1.93;;;0.87;;
10491;SDS011;5293;51.464;-2.566;2023-06-26T14:42:05;5.10;;;1.17;;
10491;SDS011;5293;51.464;-2.566;2023-06-26T14:44:32;4.90;;;1.23;;
10491;SDS011;5293;51.464;-2.566;2023-06-26T14:46:57;4.00;;;0.90;;
10491;SDS011;5293;51.464;-2.566;2023-06-26T14:49:23;3.67;;;1.57;;
10491;SDS011;5293;51.464;-2.566;2023-06-26T14:51:48;1.73;;;1.10;;
10491;SDS011;5293;51.464;-2.566;2023-06-26T14:54:14;1.93;;;1.00;;
10491;SDS011;5293;51.464;-2.566;2023-06-26T14:56:40;6.37;;;1.37;;
10491;SDS011;5293;51.464;-2.566;2023-06-26T14:59:05;3.63;;;0.93;;